createdAt,value
2018-12-13T00:00:32.891Z,87.40
2018-12-13T00:02:41.014Z,87.90
2018-12-13T00:04:46.286Z,87.80
2018-12-13T00:06:50.754Z,88.10
2018-12-13T00:08:57.873Z,87.40
2018-12-13T00:11:04.367Z,87.30
2018-12-13T00:13:11.630Z,87.60
2018-12-13T00:15:20.158Z,87.60
2018-12-13T00:17:25.381Z,87.70
2018-12-13T00:19:31.878Z,88.00
2018-12-13T00:21:38.866Z,88.20
2018-12-13T00:23:43.426Z,88.70
2018-12-13T00:25:50.087Z,88.80
2018-12-13T00:27:58.090Z,88.00
2018-12-13T00:30:04.734Z,88.00
2018-12-13T00:32:13.268Z,87.80
2018-12-13T00:34:18.053Z,87.80
2018-12-13T00:36:25.893Z,87.90
2018-12-13T00:38:33.875Z,87.80
2018-12-13T00:40:39.595Z,88.00
2018-12-13T00:42:45.850Z,88.60
2018-12-13T00:44:51.851Z,88.40
2018-12-13T00:46:56.332Z,88.40
2018-12-13T00:49:04.054Z,88.50
2018-12-13T00:51:10.965Z,88.70
2018-12-13T00:53:17.543Z,88.60
2018-12-13T00:55:23.454Z,88.80
2018-12-13T00:57:28.966Z,89.00
2018-12-13T00:59:35.942Z,88.80
2018-12-13T01:01:42.854Z,88.10
2018-12-13T01:03:47.553Z,88.00
2018-12-13T01:05:53.401Z,88.30
2018-12-13T01:08:01.032Z,88.60
2018-12-13T01:10:07.476Z,88.50
2018-12-13T01:12:14.193Z,87.90
2018-12-13T01:14:20.971Z,88.10
2018-12-13T01:16:28.189Z,88.20
2018-12-13T01:18:35.359Z,88.30
2018-12-13T01:20:41.679Z,88.30
2018-12-13T01:22:48.180Z,88.10
2018-12-13T01:24:56.071Z,88.40
2018-12-13T01:27:02.001Z,88.50
2018-12-13T01:29:06.821Z,88.60
2018-12-13T01:31:11.618Z,88.90
2018-12-13T01:33:18.001Z,89.10
2018-12-13T01:35:24.310Z,89.00
2018-12-13T01:37:31.243Z,89.10
2018-12-13T01:39:36.984Z,89.10
2018-12-13T01:41:41.646Z,89.10
2018-12-13T01:43:49.707Z,89.20
2018-12-13T01:45:56.582Z,89.30
2018-12-13T01:48:03.737Z,89.20
2018-12-13T01:50:11.846Z,89.30
2018-12-13T01:52:23.122Z,89.70
2018-12-13T01:54:30.635Z,89.50
2018-12-13T01:56:39.494Z,89.60
2018-12-13T01:58:46.932Z,89.70
2018-12-13T02:00:53.662Z,89.90
2018-12-13T02:03:00.204Z,90.20
2018-12-13T02:05:06.797Z,90.10
2018-12-13T02:07:14.598Z,90.10
2018-12-13T02:09:20.838Z,90.20
2018-12-13T02:11:29.419Z,90.20
2018-12-13T02:13:35.142Z,90.20
2018-12-13T02:15:40.242Z,90.30
2018-12-13T02:17:46.474Z,90.00
2018-12-13T02:19:53.830Z,90.10
2018-12-13T02:21:59.485Z,90.00
2018-12-13T02:24:05.812Z,90.00
2018-12-13T02:26:14.048Z,90.00
2018-12-13T02:28:26.101Z,90.00
2018-12-13T02:30:32.699Z,90.00
2018-12-13T02:32:39.782Z,89.60
2018-12-13T02:34:47.435Z,89.70
2018-12-13T02:36:53.631Z,89.80
2018-12-13T02:39:01.414Z,89.60
2018-12-13T02:41:12.071Z,89.60
2018-12-13T02:43:19.558Z,90.00
2018-12-13T02:45:26.568Z,90.10
2018-12-13T02:47:33.230Z,90.30
2018-12-13T02:49:40.680Z,90.30
2018-12-13T02:51:47.622Z,90.30
2018-12-13T02:53:59.937Z,90.40
2018-12-13T02:56:06.946Z,90.60
2018-12-13T02:58:12.882Z,90.60
2018-12-13T03:00:20.371Z,90.60
2018-12-13T03:02:25.763Z,90.70
2018-12-13T03:04:33.323Z,90.70
2018-12-13T03:06:39.086Z,90.80
2018-12-13T03:08:46.157Z,90.80
2018-12-13T03:10:51.316Z,90.80
2018-12-13T03:12:57.197Z,90.90
2018-12-13T03:15:05.294Z,90.80
2018-12-13T03:17:12.452Z,90.90
2018-12-13T03:19:18.201Z,91.00
2018-12-13T03:21:22.014Z,91.00
2018-12-13T03:23:29.117Z,91.00
2018-12-13T03:25:34.202Z,91.10
2018-12-13T03:27:38.366Z,91.00
2018-12-13T03:29:47.733Z,91.10
2018-12-13T03:31:52.420Z,91.20
2018-12-13T03:36:11.766Z,91.20
2018-12-13T03:38:19.094Z,91.00
2018-12-13T03:40:27.078Z,91.20
2018-12-13T03:42:31.572Z,91.20
2018-12-13T03:44:38.302Z,91.10
2018-12-13T03:46:44.989Z,91.00
2018-12-13T03:48:52.671Z,91.00
2018-12-13T03:50:59.143Z,90.90
2018-12-13T03:53:06.988Z,90.80
2018-12-13T03:55:14.138Z,90.90
2018-12-13T03:57:21.519Z,90.90
2018-12-13T03:59:27.100Z,90.90
2018-12-13T04:01:34.161Z,91.00
2018-12-13T04:03:41.358Z,91.00
2018-12-13T04:05:47.609Z,91.10
2018-12-13T04:07:53.201Z,91.10
2018-12-13T04:09:57.564Z,90.80
2018-12-13T04:12:02.344Z,90.80
2018-12-13T04:14:09.554Z,91.10
2018-12-13T04:16:16.515Z,91.10
2018-12-13T04:18:24.078Z,91.20
2018-12-13T04:20:31.296Z,91.00
2018-12-13T04:22:37.322Z,90.90
2018-12-13T04:24:43.744Z,90.90
2018-12-13T04:26:51.127Z,90.90
2018-12-13T04:28:59.370Z,91.10
2018-12-13T04:31:06.775Z,91.00
2018-12-13T04:33:12.048Z,91.20
2018-12-13T04:35:19.595Z,91.40
2018-12-13T04:37:26.599Z,91.40
2018-12-13T04:39:35.268Z,91.40
2018-12-13T04:41:42.218Z,91.50
2018-12-13T04:43:49.363Z,91.60
2018-12-13T04:45:57.829Z,91.60
2018-12-13T04:48:03.859Z,91.60
2018-12-13T04:50:10.483Z,91.60
2018-12-13T04:52:17.831Z,91.60
2018-12-13T04:54:29.642Z,91.60
2018-12-13T04:58:00.344Z,91.50
2018-12-13T05:00:06.838Z,91.50
2018-12-13T05:02:12.102Z,91.40
2018-12-13T05:04:17.353Z,91.50
2018-12-13T05:06:24.489Z,91.50
2018-12-13T05:08:31.669Z,91.40
2018-12-13T05:11:03.702Z,91.40
2018-12-13T05:13:10.869Z,91.40
2018-12-13T05:15:19.717Z,91.30
2018-12-13T05:17:26.630Z,91.40
2018-12-13T05:19:34.128Z,91.40
2018-12-13T05:21:42.186Z,91.50
2018-12-13T05:23:49.310Z,91.60
2018-12-13T05:25:55.628Z,91.80
2018-12-13T05:28:02.135Z,91.70
2018-12-13T05:30:10.822Z,91.60
2018-12-13T05:32:17.139Z,91.70
2018-12-13T05:34:24.724Z,91.70
2018-12-13T05:36:31.409Z,91.90
2018-12-13T05:38:37.442Z,92.00
2018-12-13T05:40:45.418Z,91.90
2018-12-13T05:42:51.938Z,92.00
2018-12-13T05:44:57.662Z,91.90
2018-12-13T05:47:01.967Z,91.90
2018-12-13T05:49:08.074Z,91.90
2018-12-13T05:51:14.344Z,92.00
2018-12-13T05:53:20.366Z,92.00
2018-12-13T05:55:26.123Z,92.00
2018-12-13T05:57:33.275Z,92.00
2018-12-13T05:59:39.717Z,92.10
2018-12-13T06:01:47.210Z,92.40
2018-12-13T06:03:54.381Z,92.00
2018-12-13T06:06:04.352Z,92.00
2018-12-13T06:08:11.409Z,92.00
2018-12-13T06:10:17.280Z,92.10
2018-12-13T06:12:25.470Z,92.10
2018-12-13T06:14:32.607Z,92.10
2018-12-13T06:16:39.643Z,92.10
2018-12-13T06:18:47.302Z,92.00
2018-12-13T06:20:54.310Z,92.00
2018-12-13T06:23:01.100Z,92.00
2018-12-13T06:25:08.618Z,92.00
2018-12-13T06:27:17.241Z,92.00
2018-12-13T06:29:24.257Z,92.00
2018-12-13T06:31:28.862Z,92.00
2018-12-13T06:33:34.706Z,92.00
2018-12-13T06:35:39.578Z,92.00
2018-12-13T06:37:47.458Z,92.00
2018-12-13T06:39:54.693Z,92.10
2018-12-13T06:42:01.799Z,92.10
2018-12-13T06:44:11.406Z,92.20
2018-12-13T06:46:18.437Z,92.10
2018-12-13T06:48:25.713Z,92.00
2018-12-13T06:50:33.701Z,92.10
2018-12-13T06:52:39.766Z,92.00
2018-12-13T06:54:44.802Z,92.00
2018-12-13T06:56:56.526Z,91.90
2018-12-13T06:59:03.621Z,91.90
2018-12-13T07:01:09.679Z,91.80
2018-12-13T07:03:17.298Z,91.90
2018-12-13T07:05:22.766Z,91.90
2018-12-13T07:07:28.685Z,91.90
2018-12-13T07:09:35.696Z,91.80
2018-12-13T07:11:42.514Z,91.80
2018-12-13T07:13:50.054Z,91.70
2018-12-13T07:15:56.970Z,91.80
2018-12-13T07:18:03.879Z,91.80
2018-12-13T07:20:12.454Z,91.70
2018-12-13T07:22:18.987Z,91.80
2018-12-13T07:24:24.665Z,91.70
2018-12-13T07:26:31.763Z,91.60
2018-12-13T07:28:38.410Z,91.90
2018-12-13T07:30:45.415Z,91.60
2018-12-13T07:32:52.621Z,91.60
2018-12-13T07:35:01.261Z,91.60
2018-12-13T07:37:05.027Z,91.70
2018-12-13T07:39:11.154Z,91.60
2018-12-13T07:41:18.701Z,91.60
2018-12-13T07:43:24.999Z,91.60
2018-12-13T07:45:33.345Z,91.70
2018-12-13T07:47:39.286Z,91.70
2018-12-13T07:49:47.078Z,91.70
2018-12-13T07:51:53.147Z,91.60
2018-12-13T07:54:00.905Z,91.70
2018-12-13T07:56:08.087Z,91.60
2018-12-13T07:58:13.724Z,91.60
2018-12-13T08:00:22.385Z,91.50
2018-12-13T08:02:32.341Z,91.50
2018-12-13T08:04:40.100Z,91.50
2018-12-13T08:06:51.515Z,91.40
2018-12-13T08:09:01.662Z,91.40
2018-12-13T08:11:10.398Z,91.40
2018-12-13T08:13:19.238Z,91.40
2018-12-13T08:15:27.671Z,91.50
2018-12-13T08:17:35.612Z,91.40
2018-12-13T08:19:44.734Z,91.50
2018-12-13T08:21:53.540Z,91.50
2018-12-13T08:24:01.997Z,91.40
2018-12-13T08:26:09.618Z,91.40
2018-12-13T08:28:15.695Z,91.40
2018-12-13T08:30:22.764Z,91.30
2018-12-13T08:32:29.801Z,91.40
2018-12-13T08:34:37.646Z,91.40
2018-12-13T08:36:42.981Z,91.30
2018-12-13T08:38:50.065Z,91.20
2018-12-13T08:40:56.216Z,91.30
2018-12-13T08:43:03.325Z,91.30
2018-12-13T08:45:10.443Z,91.20
2018-12-13T08:47:22.191Z,91.10
2018-12-13T08:49:29.608Z,91.20
2018-12-13T08:51:35.175Z,91.20
2018-12-13T08:53:41.780Z,91.20
2018-12-13T08:55:49.328Z,91.10
2018-12-13T08:57:59.443Z,91.10
2018-12-13T09:00:07.260Z,91.20
2018-12-13T09:02:18.134Z,91.20
2018-12-13T09:04:23.236Z,91.20
2018-12-13T09:06:28.719Z,91.40
2018-12-13T09:08:35.811Z,91.20
2018-12-13T09:10:42.171Z,91.20
2018-12-13T09:12:48.004Z,91.00
2018-12-13T09:14:56.041Z,90.90
2018-12-13T09:17:01.958Z,90.80
2018-12-13T09:19:09.164Z,90.60
2018-12-13T09:21:16.257Z,90.60
2018-12-13T09:23:21.997Z,90.60
2018-12-13T09:25:33.369Z,90.50
2018-12-13T09:27:44.178Z,90.40
2018-12-13T09:29:55.676Z,90.50
2018-12-13T09:32:06.753Z,90.30
2018-12-13T09:34:16.369Z,90.40
2018-12-13T09:36:26.634Z,90.50
2018-12-13T09:38:39.988Z,90.30
2018-12-13T09:40:51.761Z,90.20
2018-12-13T09:42:58.057Z,90.10
2018-12-13T09:45:05.103Z,90.00
2018-12-13T09:47:12.046Z,90.00
2018-12-13T09:49:18.451Z,89.90
2018-12-13T09:51:26.416Z,90.10
2018-12-13T09:53:32.097Z,90.10
2018-12-13T09:55:45.604Z,90.10
2018-12-13T09:57:52.265Z,90.20
2018-12-13T10:00:03.416Z,90.20
2018-12-13T10:02:12.045Z,90.40
2018-12-13T10:04:18.837Z,90.40
2018-12-13T10:06:24.177Z,90.40
2018-12-13T10:08:29.945Z,90.40
2018-12-13T10:10:35.377Z,90.50
2018-12-13T10:12:41.706Z,90.50
2018-12-13T10:14:48.492Z,90.50
2018-12-13T10:16:56.209Z,90.50
2018-12-13T10:19:03.988Z,90.50
2018-12-13T10:21:11.771Z,90.40
2018-12-13T10:23:19.154Z,90.50
2018-12-13T10:25:23.610Z,90.50
2018-12-13T10:27:29.297Z,90.60
2018-12-13T10:29:36.417Z,90.50
2018-12-13T10:31:42.505Z,90.60
2018-12-13T10:33:47.079Z,90.30
2018-12-13T10:35:54.957Z,90.30
2018-12-13T10:38:02.197Z,90.30
2018-12-13T10:40:13.201Z,90.50
2018-12-13T10:42:18.037Z,90.30
2018-12-13T10:44:28.477Z,90.20
2018-12-13T10:46:34.381Z,90.30
2018-12-13T10:48:41.265Z,90.10
2018-12-13T10:50:48.495Z,90.10
2018-12-13T10:52:55.021Z,90.10
2018-12-13T10:55:00.933Z,89.80
2018-12-13T10:57:08.459Z,90.00
2018-12-13T10:59:15.661Z,90.00
2018-12-13T11:01:26.863Z,89.80
2018-12-13T11:03:38.634Z,89.80
2018-12-13T11:05:46.926Z,89.90
2018-12-13T11:07:55.791Z,89.90
2018-12-13T11:10:02.906Z,89.20
2018-12-13T11:12:10.205Z,89.40
2018-12-13T11:14:16.200Z,89.50
2018-12-13T11:16:21.466Z,89.20
2018-12-13T11:18:30.457Z,89.30
2018-12-13T11:20:36.513Z,89.40
2018-12-13T11:22:43.316Z,89.60
2018-12-13T11:24:48.836Z,89.20
2018-12-13T11:26:58.362Z,89.30
2018-12-13T11:29:29.921Z,89.20
2018-12-13T11:31:37.172Z,89.20
2018-12-13T11:33:44.364Z,89.20
2018-12-13T11:35:52.912Z,89.10
2018-12-13T11:37:59.810Z,89.10
2018-12-13T11:40:06.191Z,88.70
2018-12-13T11:42:13.679Z,88.80
2018-12-13T11:44:20.329Z,88.80
2018-12-13T11:46:26.116Z,88.50
2018-12-13T11:48:32.098Z,88.40
2018-12-13T11:50:37.421Z,88.60
2018-12-13T11:52:45.388Z,88.70
2018-12-13T11:54:51.189Z,88.90
2018-12-13T11:56:57.916Z,89.00
2018-12-13T11:59:05.579Z,88.60
2018-12-13T12:01:12.641Z,88.40
2018-12-13T12:03:19.213Z,88.60
2018-12-13T12:05:27.246Z,88.20
2018-12-13T12:07:35.569Z,87.90
2018-12-13T12:09:43.509Z,88.10
2018-12-13T12:11:48.533Z,88.00
2018-12-13T12:13:55.042Z,88.10
2018-12-13T12:16:02.353Z,88.10
2018-12-13T12:18:09.649Z,88.40
2018-12-13T12:20:19.531Z,88.40
2018-12-13T12:22:26.165Z,88.20
2018-12-13T12:24:33.481Z,88.20
2018-12-13T12:26:40.450Z,88.00
2018-12-13T12:28:49.261Z,87.90
2018-12-13T12:30:53.540Z,87.90
2018-12-13T12:33:01.809Z,87.60
2018-12-13T12:35:07.560Z,87.70
2018-12-13T12:37:15.117Z,87.80
2018-12-13T12:39:24.212Z,87.90
2018-12-13T12:41:30.047Z,87.70
2018-12-13T12:43:36.590Z,87.90
2018-12-13T12:45:43.182Z,87.90
2018-12-13T12:47:50.417Z,87.80
2018-12-13T12:49:57.683Z,87.70
2018-12-13T12:52:03.320Z,87.60
2018-12-13T12:54:07.669Z,87.60
2018-12-13T12:56:13.697Z,87.60
2018-12-13T12:58:22.094Z,87.60
2018-12-13T13:00:29.229Z,87.60
2018-12-13T13:02:36.749Z,88.00
2018-12-13T13:04:43.214Z,87.60
2018-12-13T13:06:48.987Z,87.40
2018-12-13T13:08:55.854Z,87.50
2018-12-13T13:11:01.450Z,87.60
2018-12-13T13:13:09.837Z,87.30
2018-12-13T13:15:15.109Z,87.60
2018-12-13T13:17:22.423Z,87.60
2018-12-13T13:19:27.446Z,87.70
2018-12-13T13:21:35.216Z,88.20
2018-12-13T13:23:41.709Z,88.40
2018-12-13T13:25:47.956Z,87.50
2018-12-13T13:27:54.010Z,87.80
2018-12-13T13:30:00.283Z,87.30
2018-12-13T13:32:05.013Z,87.80
2018-12-13T13:34:09.638Z,87.60
2018-12-13T13:36:16.226Z,87.50
2018-12-13T13:38:22.861Z,87.70
2018-12-13T13:40:33.787Z,87.90
2018-12-13T13:42:39.173Z,87.70
2018-12-13T13:44:45.203Z,88.10
2018-12-13T13:46:52.874Z,88.00
2018-12-13T13:49:03.925Z,87.70
2018-12-13T13:51:10.102Z,87.70
2018-12-13T13:53:17.057Z,87.60
2018-12-13T13:55:23.912Z,87.70
2018-12-13T13:57:30.810Z,87.50
2018-12-13T13:59:36.730Z,87.50
2018-12-13T14:01:44.685Z,87.40
2018-12-13T14:03:51.220Z,87.40
2018-12-13T14:05:59.408Z,87.10
2018-12-13T14:08:07.053Z,87.20
2018-12-13T14:10:17.060Z,87.10
2018-12-13T14:12:22.405Z,87.20
2018-12-13T14:14:26.988Z,87.30
2018-12-13T14:16:31.365Z,87.20
2018-12-13T14:18:36.411Z,87.20
2018-12-13T14:20:44.306Z,87.20
2018-12-13T14:22:51.192Z,87.40
2018-12-13T14:24:58.905Z,87.40
2018-12-13T14:27:03.475Z,87.50
2018-12-13T14:29:10.285Z,87.90
2018-12-13T14:31:16.205Z,87.90
2018-12-13T14:33:23.405Z,88.10
2018-12-13T14:35:30.221Z,87.80
2018-12-13T14:37:37.457Z,88.00
2018-12-13T14:39:44.570Z,87.90
2018-12-13T14:41:51.150Z,88.00
2018-12-13T14:43:57.422Z,87.90
2018-12-13T14:46:02.305Z,88.00
2018-12-13T14:48:07.121Z,88.00
2018-12-13T14:50:14.576Z,88.30
2018-12-13T14:52:21.584Z,88.00
2018-12-13T14:54:27.737Z,88.10
2018-12-13T14:56:32.514Z,88.20
2018-12-13T14:58:39.030Z,88.30
2018-12-13T15:00:46.057Z,88.50
2018-12-13T15:02:54.353Z,88.60
2018-12-13T15:05:01.142Z,88.90
2018-12-13T15:07:07.209Z,88.90
2018-12-13T15:09:14.486Z,88.90
2018-12-13T15:11:22.591Z,89.00
2018-12-13T15:13:34.727Z,89.10
2018-12-13T15:15:43.304Z,89.20
2018-12-13T15:17:51.477Z,89.50
2018-12-13T15:19:57.655Z,89.50
2018-12-13T15:22:03.373Z,89.70
2018-12-13T15:24:08.059Z,89.60
2018-12-13T15:26:16.445Z,89.50
2018-12-13T15:28:22.733Z,89.60
2018-12-13T15:30:28.278Z,89.40
2018-12-13T15:32:34.077Z,89.50
2018-12-13T15:34:39.041Z,89.50
2018-12-13T15:36:45.024Z,89.40
2018-12-13T15:38:51.853Z,89.10
2018-12-13T15:40:58.521Z,88.90
2018-12-13T15:43:05.365Z,89.10
2018-12-13T15:45:12.656Z,89.20
2018-12-13T15:47:19.758Z,89.20
2018-12-13T15:49:26.965Z,89.50
2018-12-13T15:51:31.931Z,89.60
2018-12-13T15:53:36.929Z,89.50
2018-12-13T15:55:42.441Z,89.90
2018-12-13T15:57:47.473Z,89.90
2018-12-13T15:59:53.839Z,90.00
2018-12-13T16:01:59.405Z,90.00
2018-12-13T16:04:04.924Z,90.10
2018-12-13T16:06:09.144Z,90.00
2018-12-13T16:08:16.701Z,90.00
2018-12-13T16:10:23.760Z,90.10
2018-12-13T16:12:30.769Z,90.10
2018-12-13T16:14:38.703Z,90.10
2018-12-13T16:16:46.030Z,90.10
2018-12-13T16:18:51.229Z,90.10
2018-12-13T16:20:56.460Z,90.10
2018-12-13T16:23:01.279Z,90.20
2018-12-13T16:25:06.139Z,90.10
2018-12-13T16:27:12.098Z,90.20
2018-12-13T16:29:18.110Z,90.10
2018-12-13T16:31:24.690Z,90.10
2018-12-13T16:33:31.187Z,90.00
2018-12-13T16:35:38.529Z,90.00
2018-12-13T16:37:44.393Z,90.10
2018-12-13T16:39:50.853Z,90.00
2018-12-13T16:41:57.473Z,90.00
2018-12-13T16:44:03.696Z,90.10
2018-12-13T16:46:08.983Z,90.20
2018-12-13T16:48:16.076Z,90.00
2018-12-13T16:50:24.246Z,90.00
2018-12-13T16:52:31.597Z,90.10
2018-12-13T16:54:37.984Z,90.30
2018-12-13T16:56:45.077Z,90.00
2018-12-13T16:58:56.919Z,90.00
2018-12-13T17:01:03.886Z,90.00
2018-12-13T17:03:20.529Z,90.10
2018-12-13T17:05:26.573Z,90.00
2018-12-13T17:07:30.791Z,90.00
2018-12-13T17:09:37.601Z,90.10
2018-12-13T17:11:42.805Z,90.20
2018-12-13T17:13:48.125Z,90.20
2018-12-13T17:15:55.441Z,90.00
2018-12-13T17:18:01.281Z,90.10
2018-12-13T17:20:06.482Z,90.10
2018-12-13T17:22:12.525Z,89.90
2018-12-13T17:24:17.668Z,90.00
2018-12-13T17:26:23.728Z,90.00
2018-12-13T17:28:29.616Z,90.00
2018-12-13T17:30:39.249Z,90.10
2018-12-13T17:32:46.330Z,90.50
2018-12-13T17:34:53.197Z,90.20
2018-12-13T17:37:00.350Z,90.20
2018-12-13T17:39:12.781Z,90.20
2018-12-13T17:41:20.152Z,90.10
2018-12-13T17:43:27.341Z,90.30
2018-12-13T17:45:35.023Z,90.20
2018-12-13T17:47:42.317Z,90.30
2018-12-13T17:49:50.314Z,90.10
2018-12-13T17:51:57.389Z,90.10
2018-12-13T17:54:05.711Z,90.10
2018-12-13T17:56:14.572Z,89.80
2018-12-13T17:58:21.057Z,90.10
2018-12-13T18:00:27.620Z,89.70
2018-12-13T18:02:35.121Z,89.70
2018-12-13T18:04:40.568Z,89.40
2018-12-13T18:06:44.769Z,89.60
2018-12-13T18:08:51.118Z,89.70
2018-12-13T18:10:57.774Z,89.70
2018-12-13T18:13:02.868Z,89.50
2018-12-13T18:15:08.329Z,89.30
2018-12-13T18:17:13.873Z,89.40
2018-12-13T18:19:19.633Z,89.80
2018-12-13T18:21:24.545Z,89.60
2018-12-13T18:23:29.993Z,90.00
2018-12-13T18:25:35.194Z,89.80
2018-12-13T18:27:42.102Z,89.40
2018-12-13T18:29:48.590Z,89.00
2018-12-13T18:31:54.544Z,89.20
2018-12-13T18:34:00.822Z,89.40
2018-12-13T18:36:10.925Z,89.60
2018-12-13T18:38:17.848Z,89.20
2018-12-13T18:40:24.817Z,89.60
2018-12-13T18:42:30.758Z,89.60
2018-12-13T18:44:40.057Z,89.70
2018-12-13T18:46:45.231Z,89.90
2018-12-13T18:48:50.071Z,89.80
2018-12-13T18:50:58.591Z,89.40
2018-12-13T18:53:07.805Z,89.80
2018-12-13T18:55:13.852Z,90.00
2018-12-13T18:57:20.144Z,90.00
2018-12-13T18:59:29.073Z,90.00
2018-12-13T19:01:34.893Z,90.10
2018-12-13T19:03:40.857Z,90.40
2018-12-13T19:05:48.013Z,90.40
2018-12-13T19:08:02.996Z,90.50
2018-12-13T19:10:10.007Z,90.70
2018-12-13T19:12:18.801Z,90.70
2018-12-13T19:14:24.300Z,90.80
2018-12-13T19:16:30.333Z,90.80
2018-12-13T19:18:36.180Z,90.80
2018-12-13T19:20:42.521Z,90.90
2018-12-13T19:22:48.237Z,90.80
2018-12-13T19:24:55.688Z,90.90
2018-12-13T19:27:01.038Z,90.90
2018-12-13T19:29:07.525Z,91.00
2018-12-13T19:31:13.760Z,91.00
2018-12-13T19:33:18.147Z,91.10
2018-12-13T19:35:23.185Z,91.20
2018-12-13T19:37:28.426Z,91.10
2018-12-13T19:39:34.299Z,91.00
2018-12-13T19:41:39.861Z,91.10
2018-12-13T19:43:45.270Z,90.90
2018-12-13T19:45:52.497Z,91.20
2018-12-13T19:47:58.820Z,91.10
2018-12-13T19:50:06.048Z,91.00
2018-12-13T19:52:13.837Z,90.90
2018-12-13T19:54:21.328Z,90.90
2018-12-13T19:56:30.897Z,90.90
2018-12-13T19:58:37.358Z,91.00
2018-12-13T20:00:44.469Z,91.10
2018-12-13T20:02:51.585Z,91.00
2018-12-13T20:04:58.858Z,90.90
2018-12-13T20:07:06.353Z,90.90
2018-12-13T20:09:13.325Z,91.20
2018-12-13T20:11:20.686Z,90.80
2018-12-13T20:13:26.909Z,90.80
2018-12-13T20:15:32.814Z,90.80
2018-12-13T20:17:38.574Z,90.80
2018-12-13T20:19:43.613Z,90.80
2018-12-13T20:21:49.334Z,90.90
2018-12-13T20:23:56.369Z,90.70
2018-12-13T20:26:03.603Z,90.80
2018-12-13T20:28:10.444Z,90.70
2018-12-13T20:30:15.948Z,90.60
2018-12-13T20:32:20.469Z,90.70
2018-12-13T20:34:24.568Z,90.50
2018-12-13T20:36:29.955Z,90.60
2018-12-13T20:38:35.753Z,90.60
2018-12-13T20:40:43.537Z,90.60
2018-12-13T20:42:51.193Z,90.70
2018-12-13T20:44:57.013Z,90.60
2018-12-13T20:47:02.041Z,90.80
2018-12-13T20:49:06.800Z,90.80
2018-12-13T20:51:14.573Z,90.80
2018-12-13T20:53:21.069Z,90.70
2018-12-13T20:55:26.960Z,90.70
2018-12-13T20:57:33.585Z,90.60
2018-12-13T20:59:39.135Z,90.70
2018-12-13T21:01:46.797Z,90.70
2018-12-13T21:03:52.108Z,90.70
2018-12-13T21:05:57.760Z,90.80
2018-12-13T21:08:10.093Z,91.00
2018-12-13T21:10:18.252Z,91.10
2018-12-13T21:12:24.285Z,91.20
2018-12-13T21:14:32.009Z,91.30
2018-12-13T21:16:38.928Z,91.20
2018-12-13T21:18:47.728Z,91.20
2018-12-13T21:20:54.765Z,91.20
2018-12-13T21:23:03.789Z,91.20
2018-12-13T21:25:11.629Z,91.00
2018-12-13T21:27:18.124Z,90.90
2018-12-13T21:29:23.242Z,90.80
2018-12-13T21:31:28.354Z,90.80
2018-12-13T21:33:32.646Z,91.00
2018-12-13T21:35:36.945Z,91.10
2018-12-13T21:37:42.596Z,91.10
2018-12-13T21:39:47.249Z,91.10
2018-12-13T21:41:53.964Z,91.10
2018-12-13T21:44:03.314Z,91.20
2018-12-13T21:46:10.644Z,91.20
2018-12-13T21:48:17.020Z,91.20
2018-12-13T21:50:24.626Z,91.20
2018-12-13T21:52:30.054Z,91.30
2018-12-13T21:54:38.156Z,91.10
2018-12-13T21:56:44.257Z,91.20
2018-12-13T21:58:50.813Z,91.10
2018-12-13T22:01:02.497Z,91.10
2018-12-13T22:03:07.455Z,91.20
2018-12-13T22:05:11.909Z,91.20
2018-12-13T22:07:16.849Z,91.20
2018-12-13T22:09:22.825Z,91.20
2018-12-13T22:11:27.217Z,91.20
2018-12-13T22:13:32.384Z,91.20
2018-12-13T22:15:38.349Z,91.10
2018-12-13T22:17:45.474Z,91.10
2018-12-13T22:19:51.780Z,91.10
2018-12-13T22:21:58.445Z,91.20
2018-12-13T22:24:06.669Z,91.20
2018-12-13T22:26:13.616Z,91.30
2018-12-13T22:28:22.647Z,91.40
2018-12-13T22:30:28.205Z,91.30
2018-12-13T22:32:35.346Z,91.50
2018-12-13T22:34:42.350Z,91.50
2018-12-13T22:36:49.980Z,91.50
2018-12-13T22:38:56.399Z,91.40
2018-12-13T22:41:04.096Z,91.50
2018-12-13T22:43:10.588Z,91.60
2018-12-13T22:45:17.085Z,91.60
2018-12-13T22:47:25.229Z,91.60
2018-12-13T22:49:30.032Z,91.60
2018-12-13T22:51:37.458Z,91.70
2018-12-13T22:53:45.165Z,91.80
2018-12-13T22:55:51.116Z,91.50
2018-12-13T22:57:56.657Z,91.40
2018-12-13T23:00:03.233Z,91.40
2018-12-13T23:02:09.750Z,91.50
2018-12-13T23:04:16.973Z,91.40
2018-12-13T23:06:23.330Z,91.40
2018-12-13T23:08:29.934Z,91.40
2018-12-13T23:10:35.922Z,91.50
2018-12-13T23:12:41.644Z,91.50
2018-12-13T23:14:46.295Z,91.40
2018-12-13T23:16:52.133Z,91.40
2018-12-13T23:18:58.626Z,91.40
2018-12-13T23:21:05.092Z,91.50
2018-12-13T23:23:12.525Z,91.40
2018-12-13T23:25:17.274Z,91.40
2018-12-13T23:27:23.661Z,91.40
2018-12-13T23:29:30.208Z,91.30
2018-12-13T23:31:36.627Z,91.10
2018-12-13T23:33:42.889Z,91.00
2018-12-13T23:35:49.761Z,91.10
2018-12-13T23:37:56.817Z,91.20
2018-12-13T23:40:03.852Z,91.30
2018-12-13T23:42:09.785Z,91.40
2018-12-13T23:44:13.716Z,91.30
2018-12-13T23:46:18.141Z,91.30
2018-12-13T23:48:27.280Z,91.40
2018-12-13T23:50:33.798Z,91.40
2018-12-13T23:52:41.070Z,91.40
2018-12-13T23:54:50.169Z,91.40
2018-12-13T23:57:00.272Z,91.50
2018-12-13T23:59:07.920Z,91.40
